sensor_id;sensor_type;location;lat;lon;timestamp;P1;durP1;ratioP1;P2;durP2;ratioP2
30677;SDS011;17437;47.188;8.896;2023-04-25T00:02:12;4.55;;;4.12;;
30677;SDS011;17437;47.188;8.896;2023-04-25T00:04:44;6.22;;;4.37;;
30677;SDS011;17437;47.188;8.896;2023-04-25T00:07:18;6.40;;;4.95;;
30677;SDS011;17437;47.188;8.896;2023-04-25T00:09:50;6.10;;;5.22;;
30677;SDS011;17437;47.188;8.896;2023-04-25T00:12:21;8.28;;;4.58;;
30677;SDS011;17437;47.188;8.896;2023-04-25T00:14:54;7.22;;;5.00;;
30677;SDS011;17437;47.188;8.896;2023-04-25T00:17:26;6.33;;;5.35;;
30677;SDS011;17437;47.188;8.896;2023-04-25T00:19:58;6.85;;;5.53;;
30677;SDS011;17437;47.188;8.896;2023-04-25T00:22:30;8.30;;;6.67;;
30677;SDS011;17437;47.188;8.896;2023-04-25T00:25:04;5.35;;;4.85;;
30677;SDS011;17437;47.188;8.896;2023-04-25T00:27:36;6.65;;;4.83;;
30677;SDS011;17437;47.188;8.896;2023-04-25T00:30:09;6.00;;;4.95;;
30677;SDS011;17437;47.188;8.896;2023-04-25T00:32:44;6.83;;;5.53;;
30677;SDS011;17437;47.188;8.896;2023-04-25T00:35:15;6.17;;;5.05;;
30677;SDS011;17437;47.188;8.896;2023-04-25T00:37:47;8.08;;;5.17;;
30677;SDS011;17437;47.188;8.896;2023-04-25T00:40:18;7.83;;;5.62;;
30677;SDS011;17437;47.188;8.896;2023-04-25T00:42:50;6.50;;;5.15;;
30677;SDS011;17437;47.188;8.896;2023-04-25T00:45:23;8.80;;;5.80;;
30677;SDS011;17437;47.188;8.896;2023-04-25T00:47:58;8.08;;;6.30;;
30677;SDS011;17437;47.188;8.896;2023-04-25T00:50:31;9.10;;;5.95;;
30677;SDS011;17437;47.188;8.896;2023-04-25T00:53:04;7.87;;;5.72;;
30677;SDS011;17437;47.188;8.896;2023-04-25T00:55:38;7.22;;;5.87;;
30677;SDS011;17437;47.188;8.896;2023-04-25T00:58:09;8.28;;;6.12;;
30677;SDS011;17437;47.188;8.896;2023-04-25T01:00:41;6.85;;;5.67;;
30677;SDS011;17437;47.188;8.896;2023-04-25T01:03:14;6.78;;;4.85;;
30677;SDS011;17437;47.188;8.896;2023-04-25T01:05:48;7.97;;;4.90;;
30677;SDS011;17437;47.188;8.896;2023-04-25T01:08:21;10.10;;;5.37;;
30677;SDS011;17437;47.188;8.896;2023-04-25T01:10:54;6.62;;;4.85;;
30677;SDS011;17437;47.188;8.896;2023-04-25T01:13:26;4.75;;;4.12;;
30677;SDS011;17437;47.188;8.896;2023-04-25T01:15:58;6.80;;;4.70;;
30677;SDS011;17437;47.188;8.896;2023-04-25T01:18:29;5.15;;;4.03;;
30677;SDS011;17437;47.188;8.896;2023-04-25T01:21:03;4.50;;;4.10;;
30677;SDS011;17437;47.188;8.896;2023-04-25T01:23:39;6.20;;;4.05;;
30677;SDS011;17437;47.188;8.896;2023-04-25T01:26:11;15.10;;;5.53;;
30677;SDS011;17437;47.188;8.896;2023-04-25T01:28:43;8.03;;;6.65;;
30677;SDS011;17437;47.188;8.896;2023-04-25T01:31:15;6.50;;;3.12;;
30677;SDS011;17437;47.188;8.896;2023-04-25T01:33:46;6.33;;;3.58;;
30677;SDS011;17437;47.188;8.896;2023-04-25T01:36:18;4.53;;;3.47;;
30677;SDS011;17437;47.188;8.896;2023-04-25T01:38:51;7.28;;;3.72;;
30677;SDS011;17437;47.188;8.896;2023-04-25T01:41:24;6.35;;;3.50;;
30677;SDS011;17437;47.188;8.896;2023-04-25T01:43:55;9.70;;;5.47;;
30677;SDS011;17437;47.188;8.896;2023-04-25T01:46:27;4.87;;;4.22;;
30677;SDS011;17437;47.188;8.896;2023-04-25T01:48:59;6.20;;;3.72;;
30677;SDS011;17437;47.188;8.896;2023-04-25T01:51:31;5.15;;;4.35;;
30677;SDS011;17437;47.188;8.896;2023-04-25T01:54:03;8.93;;;5.10;;
30677;SDS011;17437;47.188;8.896;2023-04-25T01:56:37;6.17;;;4.12;;
30677;SDS011;17437;47.188;8.896;2023-04-25T01:59:10;7.70;;;4.08;;
30677;SDS011;17437;47.188;8.896;2023-04-25T02:01:42;6.08;;;3.65;;
30677;SDS011;17437;47.188;8.896;2023-04-25T02:04:14;5.25;;;3.70;;
30677;SDS011;17437;47.188;8.896;2023-04-25T02:06:46;5.65;;;4.95;;
30677;SDS011;17437;47.188;8.896;2023-04-25T02:09:17;5.70;;;4.65;;
30677;SDS011;17437;47.188;8.896;2023-04-25T02:11:48;4.67;;;3.77;;
30677;SDS011;17437;47.188;8.896;2023-04-25T02:14:20;7.50;;;3.90;;
30677;SDS011;17437;47.188;8.896;2023-04-25T02:16:52;4.10;;;3.52;;
30677;SDS011;17437;47.188;8.896;2023-04-25T02:19:23;4.40;;;3.72;;
30677;SDS011;17437;47.188;8.896;2023-04-25T02:21:55;6.80;;;4.10;;
30677;SDS011;17437;47.188;8.896;2023-04-25T02:24:27;10.10;;;4.42;;
30677;SDS011;17437;47.188;8.896;2023-04-25T02:26:58;4.12;;;3.65;;
30677;SDS011;17437;47.188;8.896;2023-04-25T02:29:30;6.50;;;4.60;;
30677;SDS011;17437;47.188;8.896;2023-04-25T02:32:01;7.42;;;4.65;;
30677;SDS011;17437;47.188;8.896;2023-04-25T02:34:33;4.50;;;4.03;;
30677;SDS011;17437;47.188;8.896;2023-04-25T02:37:05;7.22;;;4.47;;
30677;SDS011;17437;47.188;8.896;2023-04-25T02:39:37;8.40;;;4.65;;
30677;SDS011;17437;47.188;8.896;2023-04-25T02:42:08;8.13;;;4.47;;
30677;SDS011;17437;47.188;8.896;2023-04-25T02:44:40;7.85;;;4.65;;
30677;SDS011;17437;47.188;8.896;2023-04-25T02:47:11;9.28;;;5.37;;
30677;SDS011;17437;47.188;8.896;2023-04-25T02:49:43;9.48;;;5.67;;
30677;SDS011;17437;47.188;8.896;2023-04-25T02:52:14;8.43;;;5.65;;
30677;SDS011;17437;47.188;8.896;2023-04-25T02:54:46;4.75;;;4.30;;
30677;SDS011;17437;47.188;8.896;2023-04-25T02:57:18;7.25;;;5.42;;
30677;SDS011;17437;47.188;8.896;2023-04-25T02:59:50;4.62;;;4.12;;
30677;SDS011;17437;47.188;8.896;2023-04-25T03:02:21;5.87;;;4.35;;
30677;SDS011;17437;47.188;8.896;2023-04-25T03:04:53;7.37;;;3.92;;
30677;SDS011;17437;47.188;8.896;2023-04-25T03:07:24;6.60;;;3.92;;
30677;SDS011;17437;47.188;8.896;2023-04-25T03:09:56;5.22;;;3.17;;
30677;SDS011;17437;47.188;8.896;2023-04-25T03:12:27;8.78;;;3.37;;
30677;SDS011;17437;47.188;8.896;2023-04-25T03:14:59;6.72;;;3.58;;
30677;SDS011;17437;47.188;8.896;2023-04-25T03:17:30;4.70;;;3.77;;
30677;SDS011;17437;47.188;8.896;2023-04-25T03:20:02;6.00;;;3.62;;
30677;SDS011;17437;47.188;8.896;2023-04-25T03:22:37;8.10;;;4.40;;
30677;SDS011;17437;47.188;8.896;2023-04-25T03:25:08;5.78;;;4.60;;
30677;SDS011;17437;47.188;8.896;2023-04-25T03:27:40;7.62;;;4.45;;
30677;SDS011;17437;47.188;8.896;2023-04-25T03:30:11;5.03;;;3.83;;
30677;SDS011;17437;47.188;8.896;2023-04-25T03:32:43;6.87;;;4.53;;
30677;SDS011;17437;47.188;8.896;2023-04-25T03:35:15;5.12;;;3.80;;
30677;SDS011;17437;47.188;8.896;2023-04-25T03:37:47;7.20;;;3.50;;
30677;SDS011;17437;47.188;8.896;2023-04-25T03:40:18;9.50;;;3.72;;
30677;SDS011;17437;47.188;8.896;2023-04-25T03:42:49;12.25;;;6.10;;
30677;SDS011;17437;47.188;8.896;2023-04-25T03:45:21;4.47;;;2.80;;
30677;SDS011;17437;47.188;8.896;2023-04-25T03:47:53;4.33;;;2.40;;
30677;SDS011;17437;47.188;8.896;2023-04-25T03:50:24;3.25;;;2.95;;
30677;SDS011;17437;47.188;8.896;2023-04-25T03:52:56;4.37;;;2.15;;
30677;SDS011;17437;47.188;8.896;2023-04-25T03:55:27;5.42;;;2.30;;
30677;SDS011;17437;47.188;8.896;2023-04-25T03:58:00;3.30;;;2.10;;
30677;SDS011;17437;47.188;8.896;2023-04-25T04:00:31;2.30;;;1.85;;
30677;SDS011;17437;47.188;8.896;2023-04-25T04:03:03;5.40;;;2.37;;
30677;SDS011;17437;47.188;8.896;2023-04-25T04:05:35;5.33;;;1.85;;
30677;SDS011;17437;47.188;8.896;2023-04-25T04:08:09;4.55;;;3.37;;
30677;SDS011;17437;47.188;8.896;2023-04-25T04:10:40;5.08;;;3.00;;
30677;SDS011;17437;47.188;8.896;2023-04-25T04:13:12;3.02;;;1.95;;
30677;SDS011;17437;47.188;8.896;2023-04-25T04:15:44;5.78;;;1.87;;
30677;SDS011;17437;47.188;8.896;2023-04-25T04:18:16;4.62;;;2.85;;
30677;SDS011;17437;47.188;8.896;2023-04-25T04:20:47;4.28;;;2.55;;
30677;SDS011;17437;47.188;8.896;2023-04-25T04:23:20;3.47;;;1.57;;
30677;SDS011;17437;47.188;8.896;2023-04-25T04:25:51;5.28;;;1.52;;
30677;SDS011;17437;47.188;8.896;2023-04-25T04:28:23;2.47;;;1.70;;
30677;SDS011;17437;47.188;8.896;2023-04-25T04:30:55;5.17;;;1.50;;
30677;SDS011;17437;47.188;8.896;2023-04-25T04:33:27;4.30;;;2.27;;
30677;SDS011;17437;47.188;8.896;2023-04-25T04:36:00;6.25;;;2.05;;
30677;SDS011;17437;47.188;8.896;2023-04-25T04:38:32;4.05;;;1.57;;
30677;SDS011;17437;47.188;8.896;2023-04-25T04:41:06;10.05;;;1.95;;
30677;SDS011;17437;47.188;8.896;2023-04-25T04:43:38;5.55;;;1.40;;
30677;SDS011;17437;47.188;8.896;2023-04-25T04:46:10;2.30;;;1.37;;
30677;SDS011;17437;47.188;8.896;2023-04-25T04:48:42;7.62;;;1.22;;
30677;SDS011;17437;47.188;8.896;2023-04-25T04:51:14;1.17;;;1.05;;
30677;SDS011;17437;47.188;8.896;2023-04-25T04:53:46;2.50;;;1.05;;
30677;SDS011;17437;47.188;8.896;2023-04-25T04:56:18;2.30;;;1.20;;
30677;SDS011;17437;47.188;8.896;2023-04-25T04:58:51;5.37;;;1.27;;
30677;SDS011;17437;47.188;8.896;2023-04-25T05:01:23;2.98;;;1.37;;
30677;SDS011;17437;47.188;8.896;2023-04-25T05:03:56;2.75;;;1.22;;
30677;SDS011;17437;47.188;8.896;2023-04-25T05:06:30;6.45;;;3.47;;
30677;SDS011;17437;47.188;8.896;2023-04-25T05:09:02;1.60;;;1.25;;
30677;SDS011;17437;47.188;8.896;2023-04-25T05:11:33;2.17;;;1.20;;
30677;SDS011;17437;47.188;8.896;2023-04-25T05:14:05;1.82;;;1.20;;
30677;SDS011;17437;47.188;8.896;2023-04-25T05:16:36;3.33;;;1.42;;
30677;SDS011;17437;47.188;8.896;2023-04-25T05:19:08;6.25;;;1.52;;
30677;SDS011;17437;47.188;8.896;2023-04-25T05:21:39;3.02;;;1.35;;
30677;SDS011;17437;47.188;8.896;2023-04-25T05:24:12;1.45;;;1.02;;
30677;SDS011;17437;47.188;8.896;2023-04-25T05:26:43;3.52;;;2.00;;
30677;SDS011;17437;47.188;8.896;2023-04-25T05:29:15;2.52;;;1.50;;
30677;SDS011;17437;47.188;8.896;2023-04-25T05:31:46;3.60;;;1.47;;
30677;SDS011;17437;47.188;8.896;2023-04-25T05:34:18;2.65;;;1.85;;
30677;SDS011;17437;47.188;8.896;2023-04-25T05:36:49;3.27;;;1.35;;
30677;SDS011;17437;47.188;8.896;2023-04-25T05:39:21;1.62;;;1.12;;
30677;SDS011;17437;47.188;8.896;2023-04-25T05:41:59;1.25;;;0.93;;
30677;SDS011;17437;47.188;8.896;2023-04-25T05:44:31;2.98;;;1.02;;
30677;SDS011;17437;47.188;8.896;2023-04-25T05:47:02;1.00;;;0.90;;
30677;SDS011;17437;47.188;8.896;2023-04-25T05:49:34;2.70;;;1.05;;
30677;SDS011;17437;47.188;8.896;2023-04-25T05:52:06;3.33;;;1.15;;
30677;SDS011;17437;47.188;8.896;2023-04-25T05:54:38;3.25;;;1.15;;
30677;SDS011;17437;47.188;8.896;2023-04-25T05:57:14;3.05;;;1.05;;
30677;SDS011;17437;47.188;8.896;2023-04-25T05:59:48;1.35;;;0.85;;
30677;SDS011;17437;47.188;8.896;2023-04-25T06:02:20;2.12;;;0.90;;
30677;SDS011;17437;47.188;8.896;2023-04-25T06:04:52;1.40;;;1.00;;
30677;SDS011;17437;47.188;8.896;2023-04-25T06:07:26;2.60;;;0.93;;
30677;SDS011;17437;47.188;8.896;2023-04-25T06:09:59;7.20;;;1.15;;
30677;SDS011;17437;47.188;8.896;2023-04-25T06:12:33;3.47;;;1.25;;
30677;SDS011;17437;47.188;8.896;2023-04-25T06:15:10;3.65;;;1.27;;
30677;SDS011;17437;47.188;8.896;2023-04-25T06:17:43;1.35;;;1.20;;
30677;SDS011;17437;47.188;8.896;2023-04-25T06:20:14;2.47;;;1.30;;
30677;SDS011;17437;47.188;8.896;2023-04-25T06:22:46;1.05;;;0.93;;
30677;SDS011;17437;47.188;8.896;2023-04-25T06:25:18;1.72;;;0.98;;
30677;SDS011;17437;47.188;8.896;2023-04-25T06:27:50;2.40;;;1.00;;
30677;SDS011;17437;47.188;8.896;2023-04-25T06:30:21;3.15;;;1.17;;
30677;SDS011;17437;47.188;8.896;2023-04-25T06:32:55;2.10;;;1.05;;
30677;SDS011;17437;47.188;8.896;2023-04-25T06:35:29;3.58;;;1.20;;
30677;SDS011;17437;47.188;8.896;2023-04-25T06:38:01;4.92;;;1.20;;
30677;SDS011;17437;47.188;8.896;2023-04-25T06:40:33;2.22;;;1.80;;
30677;SDS011;17437;47.188;8.896;2023-04-25T06:43:05;5.42;;;1.77;;
30677;SDS011;17437;47.188;8.896;2023-04-25T06:45:36;5.05;;;1.77;;
30677;SDS011;17437;47.188;8.896;2023-04-25T06:48:08;2.20;;;1.00;;
30677;SDS011;17437;47.188;8.896;2023-04-25T06:50:40;1.82;;;1.30;;
30677;SDS011;17437;47.188;8.896;2023-04-25T06:53:12;4.45;;;2.60;;
30677;SDS011;17437;47.188;8.896;2023-04-25T06:55:45;4.03;;;2.45;;
30677;SDS011;17437;47.188;8.896;2023-04-25T06:58:16;1.62;;;1.52;;
30677;SDS011;17437;47.188;8.896;2023-04-25T07:00:48;3.02;;;1.20;;
30677;SDS011;17437;47.188;8.896;2023-04-25T07:05:57;6.35;;;4.10;;
30677;SDS011;17437;47.188;8.896;2023-04-25T07:08:29;2.80;;;2.17;;
30677;SDS011;17437;47.188;8.896;2023-04-25T07:11:00;3.22;;;1.17;;
30677;SDS011;17437;47.188;8.896;2023-04-25T07:13:32;2.95;;;1.65;;
30677;SDS011;17437;47.188;8.896;2023-04-25T07:16:04;4.95;;;1.90;;
30677;SDS011;17437;47.188;8.896;2023-04-25T07:18:36;7.62;;;1.90;;
30677;SDS011;17437;47.188;8.896;2023-04-25T07:21:08;5.42;;;1.40;;
30677;SDS011;17437;47.188;8.896;2023-04-25T07:23:39;3.40;;;1.85;;
30677;SDS011;17437;47.188;8.896;2023-04-25T07:26:11;6.42;;;2.65;;
30677;SDS011;17437;47.188;8.896;2023-04-25T07:28:42;4.33;;;2.15;;
30677;SDS011;17437;47.188;8.896;2023-04-25T07:31:16;4.85;;;2.25;;
30677;SDS011;17437;47.188;8.896;2023-04-25T07:33:48;3.65;;;2.45;;
30677;SDS011;17437;47.188;8.896;2023-04-25T07:36:19;2.75;;;1.62;;
30677;SDS011;17437;47.188;8.896;2023-04-25T07:38:51;5.20;;;2.15;;
30677;SDS011;17437;47.188;8.896;2023-04-25T07:41:22;4.83;;;1.70;;
30677;SDS011;17437;47.188;8.896;2023-04-25T07:43:54;6.53;;;2.00;;
30677;SDS011;17437;47.188;8.896;2023-04-25T07:46:25;3.55;;;2.35;;
30677;SDS011;17437;47.188;8.896;2023-04-25T07:48:57;3.40;;;2.15;;
30677;SDS011;17437;47.188;8.896;2023-04-25T07:51:28;6.25;;;2.62;;
30677;SDS011;17437;47.188;8.896;2023-04-25T07:54:00;3.10;;;2.45;;
30677;SDS011;17437;47.188;8.896;2023-04-25T07:56:32;3.80;;;3.25;;
30677;SDS011;17437;47.188;8.896;2023-04-25T07:59:06;3.22;;;1.90;;
30677;SDS011;17437;47.188;8.896;2023-04-25T08:01:38;8.20;;;2.12;;
30677;SDS011;17437;47.188;8.896;2023-04-25T08:04:11;3.30;;;2.05;;
30677;SDS011;17437;47.188;8.896;2023-04-25T08:06:43;4.80;;;2.77;;
30677;SDS011;17437;47.188;8.896;2023-04-25T08:09:15;5.50;;;3.75;;
30677;SDS011;17437;47.188;8.896;2023-04-25T08:11:47;3.20;;;2.02;;
30677;SDS011;17437;47.188;8.896;2023-04-25T08:14:18;4.50;;;2.30;;
30677;SDS011;17437;47.188;8.896;2023-04-25T08:16:50;3.92;;;2.65;;
30677;SDS011;17437;47.188;8.896;2023-04-25T08:19:21;2.98;;;1.85;;
30677;SDS011;17437;47.188;8.896;2023-04-25T08:21:53;3.20;;;2.25;;
30677;SDS011;17437;47.188;8.896;2023-04-25T08:24:25;3.50;;;1.57;;
30677;SDS011;17437;47.188;8.896;2023-04-25T08:26:57;2.45;;;1.20;;
30677;SDS011;17437;47.188;8.896;2023-04-25T08:29:29;5.15;;;1.27;;
30677;SDS011;17437;47.188;8.896;2023-04-25T08:32:01;2.17;;;1.52;;
30677;SDS011;17437;47.188;8.896;2023-04-25T08:34:32;2.33;;;2.12;;
30677;SDS011;17437;47.188;8.896;2023-04-25T08:37:05;3.25;;;2.95;;
30677;SDS011;17437;47.188;8.896;2023-04-25T08:39:37;2.90;;;1.80;;
30677;SDS011;17437;47.188;8.896;2023-04-25T08:42:11;2.33;;;0.98;;
30677;SDS011;17437;47.188;8.896;2023-04-25T08:44:44;3.37;;;1.42;;
30677;SDS011;17437;47.188;8.896;2023-04-25T08:47:18;3.00;;;1.52;;
30677;SDS011;17437;47.188;8.896;2023-04-25T08:49:52;5.15;;;1.32;;
30677;SDS011;17437;47.188;8.896;2023-04-25T08:52:27;3.75;;;1.45;;
30677;SDS011;17437;47.188;8.896;2023-04-25T08:55:00;1.80;;;1.35;;
30677;SDS011;17437;47.188;8.896;2023-04-25T08:57:33;1.65;;;1.37;;
30677;SDS011;17437;47.188;8.896;2023-04-25T09:00:07;3.75;;;2.05;;
30677;SDS011;17437;47.188;8.896;2023-04-25T09:02:41;3.35;;;2.22;;
30677;SDS011;17437;47.188;8.896;2023-04-25T09:05:13;2.22;;;1.60;;
30677;SDS011;17437;47.188;8.896;2023-04-25T09:07:47;6.65;;;2.02;;
30677;SDS011;17437;47.188;8.896;2023-04-25T09:10:18;3.67;;;1.80;;
30677;SDS011;17437;47.188;8.896;2023-04-25T09:13:02;3.65;;;1.82;;
30677;SDS011;17437;47.188;8.896;2023-04-25T09:15:34;2.30;;;2.10;;
30677;SDS011;17437;47.188;8.896;2023-04-25T09:18:23;2.50;;;1.17;;
30677;SDS011;17437;47.188;8.896;2023-04-25T09:20:58;5.00;;;1.30;;
30677;SDS011;17437;47.188;8.896;2023-04-25T09:23:40;4.95;;;2.45;;
30677;SDS011;17437;47.188;8.896;2023-04-25T09:26:14;3.05;;;1.75;;
30677;SDS011;17437;47.188;8.896;2023-04-25T09:28:47;3.08;;;1.77;;
30677;SDS011;17437;47.188;8.896;2023-04-25T09:31:21;3.58;;;2.17;;
30677;SDS011;17437;47.188;8.896;2023-04-25T09:33:58;5.47;;;2.30;;
30677;SDS011;17437;47.188;8.896;2023-04-25T09:36:31;2.92;;;1.82;;
30677;SDS011;17437;47.188;8.896;2023-04-25T09:39:04;3.25;;;1.57;;
30677;SDS011;17437;47.188;8.896;2023-04-25T09:41:39;2.27;;;1.98;;
30677;SDS011;17437;47.188;8.896;2023-04-25T09:44:13;4.12;;;2.87;;
30677;SDS011;17437;47.188;8.896;2023-04-25T09:46:46;4.67;;;2.10;;
30677;SDS011;17437;47.188;8.896;2023-04-25T09:49:22;8.35;;;2.60;;
30677;SDS011;17437;47.188;8.896;2023-04-25T09:51:55;1.92;;;1.67;;
30677;SDS011;17437;47.188;8.896;2023-04-25T09:54:27;6.05;;;2.27;;
30677;SDS011;17437;47.188;8.896;2023-04-25T09:56:58;4.08;;;1.98;;
30677;SDS011;17437;47.188;8.896;2023-04-25T09:59:34;4.08;;;2.00;;
30677;SDS011;17437;47.188;8.896;2023-04-25T10:02:08;4.40;;;2.83;;
30677;SDS011;17437;47.188;8.896;2023-04-25T10:04:41;6.83;;;2.22;;
30677;SDS011;17437;47.188;8.896;2023-04-25T10:07:16;2.87;;;2.50;;
30677;SDS011;17437;47.188;8.896;2023-04-25T10:09:49;3.22;;;2.52;;
30677;SDS011;17437;47.188;8.896;2023-04-25T10:12:24;3.40;;;2.37;;
30677;SDS011;17437;47.188;8.896;2023-04-25T10:14:57;3.60;;;2.37;;
30677;SDS011;17437;47.188;8.896;2023-04-25T10:17:29;2.77;;;2.02;;
30677;SDS011;17437;47.188;8.896;2023-04-25T10:20:05;2.80;;;1.98;;
30677;SDS011;17437;47.188;8.896;2023-04-25T10:22:41;2.65;;;1.60;;
30677;SDS011;17437;47.188;8.896;2023-04-25T10:27:53;1.40;;;1.22;;
30677;SDS011;17437;47.188;8.896;2023-04-25T10:33:03;4.90;;;3.08;;
30677;SDS011;17437;47.188;8.896;2023-04-25T10:35:42;4.05;;;2.15;;
30677;SDS011;17437;47.188;8.896;2023-04-25T10:38:15;2.10;;;1.57;;
30677;SDS011;17437;47.188;8.896;2023-04-25T10:41:03;4.85;;;2.02;;
30677;SDS011;17437;47.188;8.896;2023-04-25T10:43:37;2.83;;;1.90;;
30677;SDS011;17437;47.188;8.896;2023-04-25T10:46:16;3.27;;;1.70;;
30677;SDS011;17437;47.188;8.896;2023-04-25T10:48:49;3.60;;;2.22;;
30677;SDS011;17437;47.188;8.896;2023-04-25T10:51:22;2.15;;;1.72;;
30677;SDS011;17437;47.188;8.896;2023-04-25T10:53:59;7.60;;;5.22;;
30677;SDS011;17437;47.188;8.896;2023-04-25T10:56:31;5.28;;;3.27;;
30677;SDS011;17437;47.188;8.896;2023-04-25T10:59:05;3.83;;;1.42;;
30677;SDS011;17437;47.188;8.896;2023-04-25T11:01:39;4.58;;;1.57;;
30677;SDS011;17437;47.188;8.896;2023-04-25T11:04:20;1.27;;;1.07;;
30677;SDS011;17437;47.188;8.896;2023-04-25T11:07:05;4.12;;;1.42;;
30677;SDS011;17437;47.188;8.896;2023-04-25T11:09:40;1.82;;;1.05;;
30677;SDS011;17437;47.188;8.896;2023-04-25T11:12:12;1.07;;;0.80;;
30677;SDS011;17437;47.188;8.896;2023-04-25T11:14:43;0.82;;;0.40;;
30677;SDS011;17437;47.188;8.896;2023-04-25T11:17:17;0.93;;;0.45;;
30677;SDS011;17437;47.188;8.896;2023-04-25T11:19:49;0.55;;;0.50;;
30677;SDS011;17437;47.188;8.896;2023-04-25T11:22:21;3.60;;;0.55;;
30677;SDS011;17437;47.188;8.896;2023-04-25T11:24:53;0.57;;;0.55;;
30677;SDS011;17437;47.188;8.896;2023-04-25T11:27:25;2.15;;;1.87;;
30677;SDS011;17437;47.188;8.896;2023-04-25T11:29:56;2.55;;;2.35;;
30677;SDS011;17437;47.188;8.896;2023-04-25T11:32:28;2.15;;;0.60;;
30677;SDS011;17437;47.188;8.896;2023-04-25T11:35:00;2.02;;;0.80;;
30677;SDS011;17437;47.188;8.896;2023-04-25T11:37:32;2.50;;;0.78;;
30677;SDS011;17437;47.188;8.896;2023-04-25T11:40:05;0.68;;;0.60;;
30677;SDS011;17437;47.188;8.896;2023-04-25T11:42:42;1.42;;;0.88;;
30677;SDS011;17437;47.188;8.896;2023-04-25T11:45:14;1.65;;;1.00;;
30677;SDS011;17437;47.188;8.896;2023-04-25T11:47:49;1.12;;;0.72;;
30677;SDS011;17437;47.188;8.896;2023-04-25T11:50:21;2.70;;;1.25;;
30677;SDS011;17437;47.188;8.896;2023-04-25T11:52:55;2.05;;;1.02;;
30677;SDS011;17437;47.188;8.896;2023-04-25T11:55:27;2.40;;;1.42;;
30677;SDS011;17437;47.188;8.896;2023-04-25T11:58:01;1.37;;;1.17;;
30677;SDS011;17437;47.188;8.896;2023-04-25T12:00:33;2.12;;;1.45;;
30677;SDS011;17437;47.188;8.896;2023-04-25T12:03:05;1.62;;;1.25;;
30677;SDS011;17437;47.188;8.896;2023-04-25T12:05:39;3.15;;;1.22;;
30677;SDS011;17437;47.188;8.896;2023-04-25T12:08:11;2.67;;;1.80;;
30677;SDS011;17437;47.188;8.896;2023-04-25T12:10:45;3.75;;;1.37;;
30677;SDS011;17437;47.188;8.896;2023-04-25T12:13:21;2.20;;;1.65;;
30677;SDS011;17437;47.188;8.896;2023-04-25T12:15:54;3.70;;;1.65;;
30677;SDS011;17437;47.188;8.896;2023-04-25T12:18:26;1.98;;;1.77;;
30677;SDS011;17437;47.188;8.896;2023-04-25T12:20:57;1.52;;;1.40;;
30677;SDS011;17437;47.188;8.896;2023-04-25T12:23:29;1.85;;;1.47;;
30677;SDS011;17437;47.188;8.896;2023-04-25T12:26:01;1.75;;;1.30;;
30677;SDS011;17437;47.188;8.896;2023-04-25T12:28:33;1.55;;;1.25;;
30677;SDS011;17437;47.188;8.896;2023-04-25T12:31:05;1.67;;;1.22;;
30677;SDS011;17437;47.188;8.896;2023-04-25T12:33:38;1.40;;;1.15;;
30677;SDS011;17437;47.188;8.896;2023-04-25T12:36:11;1.15;;;1.00;;
30677;SDS011;17437;47.188;8.896;2023-04-25T12:38:42;1.35;;;0.95;;
30677;SDS011;17437;47.188;8.896;2023-04-25T12:41:14;1.55;;;1.07;;
30677;SDS011;17437;47.188;8.896;2023-04-25T12:43:46;0.75;;;0.75;;
30677;SDS011;17437;47.188;8.896;2023-04-25T12:46:17;2.17;;;1.55;;
30677;SDS011;17437;47.188;8.896;2023-04-25T12:48:49;1.55;;;1.00;;
30677;SDS011;17437;47.188;8.896;2023-04-25T12:51:21;1.05;;;0.80;;
30677;SDS011;17437;47.188;8.896;2023-04-25T12:53:54;1.72;;;0.90;;
30677;SDS011;17437;47.188;8.896;2023-04-25T12:56:25;2.12;;;0.70;;
30677;SDS011;17437;47.188;8.896;2023-04-25T12:58:58;1.07;;;0.98;;
30677;SDS011;17437;47.188;8.896;2023-04-25T13:01:31;2.17;;;0.60;;
30677;SDS011;17437;47.188;8.896;2023-04-25T13:04:04;0.85;;;0.85;;
30677;SDS011;17437;47.188;8.896;2023-04-25T13:06:36;0.80;;;0.60;;
30677;SDS011;17437;47.188;8.896;2023-04-25T13:09:08;1.22;;;0.60;;
30677;SDS011;17437;47.188;8.896;2023-04-25T13:11:42;0.82;;;0.68;;
30677;SDS011;17437;47.188;8.896;2023-04-25T13:14:14;0.75;;;0.65;;
30677;SDS011;17437;47.188;8.896;2023-04-25T13:16:46;1.37;;;0.70;;
30677;SDS011;17437;47.188;8.896;2023-04-25T13:19:17;0.70;;;0.65;;
30677;SDS011;17437;47.188;8.896;2023-04-25T13:21:50;0.90;;;0.50;;
30677;SDS011;17437;47.188;8.896;2023-04-25T13:24:21;0.25;;;0.25;;
30677;SDS011;17437;47.188;8.896;2023-04-25T13:26:53;0.17;;;0.17;;
30677;SDS011;17437;47.188;8.896;2023-04-25T13:29:25;0.10;;;0.10;;
30677;SDS011;17437;47.188;8.896;2023-04-25T13:31:56;0.50;;;0.50;;
30677;SDS011;17437;47.188;8.896;2023-04-25T13:34:28;0.60;;;0.25;;
30677;SDS011;17437;47.188;8.896;2023-04-25T13:37:00;0.50;;;0.37;;
30677;SDS011;17437;47.188;8.896;2023-04-25T13:42:23;7.10;;;0.88;;
30677;SDS011;17437;47.188;8.896;2023-04-25T13:44:55;0.53;;;0.30;;
30677;SDS011;17437;47.188;8.896;2023-04-25T13:47:27;0.47;;;0.30;;
30677;SDS011;17437;47.188;8.896;2023-04-25T13:49:58;2.42;;;0.20;;
30677;SDS011;17437;47.188;8.896;2023-04-25T13:52:33;0.75;;;0.33;;
30677;SDS011;17437;47.188;8.896;2023-04-25T13:55:05;0.78;;;0.40;;
30677;SDS011;17437;47.188;8.896;2023-04-25T13:57:37;0.68;;;0.40;;
30677;SDS011;17437;47.188;8.896;2023-04-25T14:00:10;1.75;;;0.47;;
30677;SDS011;17437;47.188;8.896;2023-04-25T14:02:43;0.82;;;0.50;;
30677;SDS011;17437;47.188;8.896;2023-04-25T14:05:16;1.37;;;0.62;;
30677;SDS011;17437;47.188;8.896;2023-04-25T14:07:48;0.65;;;0.45;;
30677;SDS011;17437;47.188;8.896;2023-04-25T14:10:20;2.30;;;0.60;;
30677;SDS011;17437;47.188;8.896;2023-04-25T14:12:51;0.30;;;0.30;;
30677;SDS011;17437;47.188;8.896;2023-04-25T14:15:23;0.80;;;0.40;;
30677;SDS011;17437;47.188;8.896;2023-04-25T14:17:57;5.45;;;3.50;;
30677;SDS011;17437;47.188;8.896;2023-04-25T14:20:29;2.95;;;1.98;;
30677;SDS011;17437;47.188;8.896;2023-04-25T14:23:01;1.67;;;0.60;;
30677;SDS011;17437;47.188;8.896;2023-04-25T14:25:40;1.37;;;0.47;;
30677;SDS011;17437;47.188;8.896;2023-04-25T14:30:55;0.82;;;0.70;;
30677;SDS011;17437;47.188;8.896;2023-04-25T14:33:26;2.85;;;0.98;;
30677;SDS011;17437;47.188;8.896;2023-04-25T14:36:00;1.85;;;1.10;;
30677;SDS011;17437;47.188;8.896;2023-04-25T14:38:32;1.92;;;0.90;;
30677;SDS011;17437;47.188;8.896;2023-04-25T14:41:03;1.15;;;0.70;;
30677;SDS011;17437;47.188;8.896;2023-04-25T14:43:35;3.22;;;0.78;;
30677;SDS011;17437;47.188;8.896;2023-04-25T14:46:08;1.12;;;0.70;;
30677;SDS011;17437;47.188;8.896;2023-04-25T14:48:40;0.80;;;0.60;;
30677;SDS011;17437;47.188;8.896;2023-04-25T14:51:12;0.55;;;0.55;;
30677;SDS011;17437;47.188;8.896;2023-04-25T14:53:44;0.90;;;0.70;;
30677;SDS011;17437;47.188;8.896;2023-04-25T14:56:15;1.47;;;0.60;;
30677;SDS011;17437;47.188;8.896;2023-04-25T14:58:47;3.25;;;1.60;;
30677;SDS011;17437;47.188;8.896;2023-04-25T15:01:19;0.53;;;0.53;;
30677;SDS011;17437;47.188;8.896;2023-04-25T15:03:51;1.20;;;0.47;;
30677;SDS011;17437;47.188;8.896;2023-04-25T15:06:23;1.22;;;0.60;;
30677;SDS011;17437;47.188;8.896;2023-04-25T15:08:56;0.62;;;0.62;;
30677;SDS011;17437;47.188;8.896;2023-04-25T15:11:27;1.30;;;0.60;;
30677;SDS011;17437;47.188;8.896;2023-04-25T15:13:59;1.70;;;0.57;;
30677;SDS011;17437;47.188;8.896;2023-04-25T15:16:30;1.37;;;1.27;;
30677;SDS011;17437;47.188;8.896;2023-04-25T15:19:03;1.27;;;0.50;;
30677;SDS011;17437;47.188;8.896;2023-04-25T15:21:34;2.90;;;1.55;;
30677;SDS011;17437;47.188;8.896;2023-04-25T15:24:06;2.83;;;0.60;;
30677;SDS011;17437;47.188;8.896;2023-04-25T15:26:38;1.70;;;1.27;;
30677;SDS011;17437;47.188;8.896;2023-04-25T15:29:10;1.20;;;0.70;;
30677;SDS011;17437;47.188;8.896;2023-04-25T15:31:41;1.67;;;1.30;;
30677;SDS011;17437;47.188;8.896;2023-04-25T15:34:13;2.00;;;0.72;;